Time;durP1;ratioP1;P1;durP2;ratioP2;P2;SDS_P1;SDS_P2;PMS_P1;PMS_P2;Temp;Humidity;BMP_temperature;BMP_pressure;BME280_temperature;BME280_humidity;BME280_pressure;Samples;Min_cycle;Max_cycle;Signal;HPM_P1;HPM_P2
2023/10/10 00:02:19;;;;;;;;;24.00;22.67;;;;;19.29;56.78;101505.59;5057113;28;45302;-85
2023/10/10 00:04:48;;;;;;;;;31.33;26.67;;;;;19.27;56.86;101499.44;5055526;28;45541;-83
2023/10/10 00:07:17;;;;;;;;;29.33;29.33;;;;;19.22;56.36;101491.72;5055614;28;45464;-84
2023/10/10 00:09:44;;;;;;;;;29.33;29.33;;;;;19.19;56.54;101489.28;5056545;28;45547;-84
2023/10/10 00:12:26;;;;;;;;;28.33;27.00;;;;;19.02;57.30;101474.41;5055931;28;46586;-83
2023/10/10 00:14:53;;;;;;;;;29.33;29.00;;;;;19.17;57.40;101510.09;5055142;28;45232;-84
2023/10/10 00:17:20;;;;;;;;;31.00;26.33;;;;;19.03;57.74;101495.00;5056796;28;45243;-83
2023/10/10 00:19:52;;;;;;;;;29.67;28.00;;;;;18.93;57.96;101482.34;5058913;28;45212;-83
2023/10/10 00:22:25;;;;;;;;;28.67;23.00;;;;;19.12;57.63;101509.59;5058663;28;46196;-83
2023/10/10 00:24:53;;;;;;;;;33.67;30.67;;;;;18.89;57.67;101475.47;5056774;28;45552;-82
2023/10/10 00:27:21;;;;;;;;;32.00;29.00;;;;;18.98;57.94;101493.63;5058165;28;45308;-84
2023/10/10 00:29:46;;;;;;;;;31.00;29.00;;;;;18.89;58.10;101491.66;5057544;28;45594;-83
2023/10/10 00:32:17;;;;;;;;;34.67;31.00;;;;;18.79;58.54;101480.72;5058679;28;45433;-83
2023/10/10 00:34:47;;;;;;;;;37.00;29.67;;;;;18.85;58.64;101502.66;5056647;28;45363;-84
2023/10/10 00:37:21;;;;;;;;;36.67;30.00;;;;;18.72;58.79;101480.31;5056134;28;45915;-82
2023/10/10 00:39:52;;;;;;;;;29.67;27.33;;;;;18.82;58.90;101502.03;5057649;28;45535;-82
2023/10/10 00:42:27;;;;;;;;;35.33;28.33;;;;;18.83;58.65;101498.34;5058552;28;45318;-84
2023/10/10 00:44:53;;;;;;;;;39.33;27.00;;;;;18.69;59.25;101475.16;5057700;28;45286;-84
2023/10/10 00:47:21;;;;;;;;;33.33;28.67;;;;;18.69;59.03;101485.94;5056349;28;45517;-82
2023/10/10 00:49:47;;;;;;;;;32.33;26.33;;;;;18.57;59.25;101467.97;5057815;28;45555;-83
2023/10/10 00:52:16;;;;;;;;;27.67;23.67;;;;;18.73;59.47;101503.56;5058173;28;46156;-83
2023/10/10 00:54:45;;;;;;;;;30.33;28.67;;;;;18.78;59.67;101505.94;5057836;28;45341;-84
2023/10/10 00:57:19;;;;;;;;;29.00;25.00;;;;;18.76;59.48;101507.91;5057828;28;45444;-84
2023/10/10 00:59:46;;;;;;;;;26.00;25.00;;;;;18.69;59.59;101504.78;5058086;28;45284;-84
2023/10/10 01:02:13;;;;;;;;;26.00;24.33;;;;;18.73;59.43;101500.03;5058113;28;45339;-83
2023/10/10 01:04:41;;;;;;;;;25.33;25.33;;;;;18.49;59.66;101456.91;5056153;28;45284;-83
2023/10/10 01:07:07;;;;;;;;;28.00;24.67;;;;;18.67;59.99;101492.41;5047892;28;45522;-84
2023/10/10 01:09:51;;;;;;;;;26.00;23.33;;;;;18.70;60.11;101487.66;5057325;28;45590;-82
2023/10/10 01:12:16;;;;;;;;;23.00;21.67;;;;;18.68;59.67;101494.13;5057380;28;46043;-83
2023/10/10 01:14:43;;;;;;;;;29.00;25.67;;;;;18.61;60.04;101479.34;5057618;28;45440;-83
2023/10/10 01:17:12;;;;;;;;;26.33;24.33;;;;;18.65;60.02;101492.53;5057620;28;45323;-82
2023/10/10 01:19:37;;;;;;;;;26.00;23.67;;;;;18.50;60.09;101469.41;5058119;28;45353;-84
2023/10/10 01:22:12;;;;;;;;;26.00;23.00;;;;;18.50;60.36;101466.72;5057918;28;48293;-83
2023/10/10 01:24:40;;;;;;;;;29.00;25.00;;;;;18.55;60.35;101469.91;5057375;28;45290;-83
2023/10/10 01:27:16;;;;;;;;;22.67;22.00;;;;;18.60;60.56;101480.34;5057200;28;45900;-83
2023/10/10 01:29:49;;;;;;;;;22.33;20.33;;;;;18.47;60.51;101461.56;5057411;28;45335;-82
2023/10/10 01:32:16;;;;;;;;;17.33;14.00;;;;;18.53;60.79;101477.25;5057887;28;45479;-83
2023/10/10 01:34:44;;;;;;;;;22.33;20.00;;;;;18.52;60.63;101481.78;5057158;28;45223;-84
2023/10/10 01:37:14;;;;;;;;;21.67;20.00;;;;;18.48;60.91;101479.44;5056907;28;45475;-84
2023/10/10 01:40:16;;;;;;;;;29.00;25.67;;;;;18.42;61.31;101479.91;5056407;28;45597;-85
2023/10/10 01:42:51;;;;;;;;;21.33;19.67;;;;;18.43;60.93;101484.31;5055627;28;45824;-82
2023/10/10 01:45:19;;;;;;;;;23.00;20.00;;;;;18.34;60.99;101458.06;5055081;28;45431;-84
2023/10/10 01:47:56;;;;;;;;;23.00;23.00;;;;;18.38;61.12;101467.66;5057720;28;45278;-82
2023/10/10 01:50:23;;;;;;;;;24.00;20.67;;;;;18.38;60.96;101470.34;5058098;28;45346;-82
2023/10/10 01:52:49;;;;;;;;;20.33;19.33;;;;;18.33;61.01;101465.28;5055005;28;48298;-82
2023/10/10 01:55:17;;;;;;;;;22.33;19.67;;;;;18.30;61.15;101464.66;5057435;28;45392;-83
2023/10/10 01:57:42;;;;;;;;;23.67;20.67;;;;;18.20;61.59;101448.31;5057658;28;45408;-83
2023/10/10 02:00:26;;;;;;;;;21.00;18.67;;;;;18.13;61.19;101441.69;5057777;28;45467;-82
2023/10/10 02:02:55;;;;;;;;;18.33;18.33;;;;;18.26;60.87;101462.19;5056029;28;46053;-82
2023/10/10 02:08:09;;;;;;;;;17.67;16.33;;;;;18.25;61.52;101460.47;5039990;28;45477;-83
2023/10/10 02:10:45;;;;;;;;;15.67;15.67;;;;;18.19;61.35;101466.31;5039287;28;45410;-83
2023/10/10 02:13:11;;;;;;;;;15.67;15.67;;;;;18.18;61.54;101464.59;5057579;28;46190;-82
2023/10/10 02:15:39;;;;;;;;;21.67;19.33;;;;;18.18;61.52;101459.22;5058195;28;45455;-82
2023/10/10 02:18:17;;;;;;;;;18.00;18.00;;;;;18.19;61.71;101460.06;5058428;28;45350;-82
2023/10/10 02:23:24;;;;;;;;;18.67;17.00;;;;;18.15;62.36;101454.06;5057080;28;46266;-82
2023/10/10 02:25:53;;;;;;;;;22.00;21.33;;;;;18.10;62.20;101456.25;5058195;28;45371;-82
2023/10/10 02:30:47;;;;;;;;;19.33;16.67;;;;;18.07;62.29;101453.75;5057317;28;45326;-83
2023/10/10 02:35:55;;;;;;;;;26.33;22.33;;;;;18.02;62.72;101450.56;5057443;28;45258;-82
2023/10/10 02:38:40;;;;;;;;;21.67;20.00;;;;;17.95;62.69;101439.38;5057553;28;45311;-82
2023/10/10 02:41:38;;;;;;;;;21.00;20.00;;;;;18.02;63.00;101449.69;5055693;28;45612;-82
2023/10/10 02:44:05;;;;;;;;;21.67;20.00;;;;;17.90;63.39;101438.84;5056503;28;46357;-83
2023/10/10 02:46:38;;;;;;;;;15.00;13.33;;;;;17.84;63.33;101443.81;5057782;28;45317;-84
2023/10/10 02:49:23;;;;;;;;;20.67;20.67;;;;;17.81;63.61;101438.66;5057696;28;45326;-83
2023/10/10 02:51:51;;;;;;;;;21.33;20.00;;;;;17.90;63.42;101454.13;5056220;28;45465;-83
2023/10/10 02:56:56;;;;;;;;;22.67;20.33;;;;;17.81;63.50;101449.41;5056928;28;45345;-82
2023/10/10 02:59:22;;;;;;;;;21.00;19.00;;;;;17.66;63.78;101419.94;5064585;28;45307;-82
2023/10/10 03:02:09;;;;;;;;;26.33;23.00;;;;;17.82;63.72;101451.13;5064907;28;45530;-83
2023/10/10 03:05:06;;;;;;;;;21.67;19.00;;;;;17.76;63.92;101444.38;5061775;28;47706;-82
2023/10/10 03:07:32;;;;;;;;;22.00;21.33;;;;;17.66;63.61;101428.00;5059147;28;45322;-83
2023/10/10 03:12:41;;;;;;;;;20.67;19.67;;;;;17.78;63.99;101436.19;5054725;28;45338;-83
2023/10/10 03:17:49;;;;;;;;;21.00;19.00;;;;;17.69;63.75;101417.06;5055856;28;45446;-83
2023/10/10 03:25:51;;;;;;;;;21.67;19.67;;;;;17.77;63.94;101440.72;5056042;28;45212;-83
2023/10/10 03:28:20;;;;;;;;;20.33;20.33;;;;;17.76;63.97;101440.84;5056849;28;45583;-83
2023/10/10 03:30:51;;;;;;;;;18.67;17.67;;;;;17.76;63.95;101440.84;5055876;28;45495;-82
2023/10/10 03:34:32;;;;;;;;;23.33;20.00;;;;;17.56;63.88;101408.13;5055652;28;45257;-83
2023/10/10 05:23:29;;;;;;;;;18.67;18.00;;;;;17.72;64.56;101431.28;5055436;28;45452;-84
2023/10/10 05:25:22;;;;;;;;;23.33;22.00;;;;;17.29;65.34;101404.72;5059688;28;45284;-84
2023/10/10 05:27:48;;;;;;;;;18.33;16.33;;;;;17.26;65.04;101394.19;5059145;28;45342;-84
2023/10/10 05:30:23;;;;;;;;;20.00;20.00;;;;;17.33;64.99;101399.03;5059656;28;45397;-83
2023/10/10 05:33:00;;;;;;;;;20.67;17.33;;;;;17.32;64.77;101391.09;5059840;28;45326;-82
2023/10/10 05:35:37;;;;;;;;;21.33;19.67;;;;;17.35;65.07;101393.56;5059678;28;45546;-81
2023/10/10 05:38:04;;;;;;;;;19.67;18.67;;;;;17.37;65.34;101394.28;5053874;28;45280;-84
2023/10/10 05:40:33;;;;;;;;;14.00;13.00;;;;;17.28;64.91;101392.25;5056691;28;45637;-86
2023/10/10 05:43:25;;;;;;;;;16.00;13.67;;;;;17.23;64.76;101384.53;5064209;28;45420;-88
2023/10/10 05:45:54;;;;;;;;;21.00;17.33;;;;;17.37;64.70;101394.28;5064484;28;45496;-89
2023/10/10 05:48:22;;;;;;;;;18.67;16.33;;;;;17.37;64.05;101386.22;5066134;28;45323;-88
2023/10/10 05:50:48;;;;;;;;;19.67;17.67;;;;;17.39;64.19;101395.03;5060172;28;45223;-85
2023/10/10 05:53:15;;;;;;;;;21.33;20.00;;;;;17.11;64.83;101347.78;5059460;28;45442;-84
2023/10/10 05:55:41;;;;;;;;;16.00;16.00;;;;;17.21;65.11;101364.97;5061667;28;46253;-85
2023/10/10 05:58:08;;;;;;;;;23.67;20.33;;;;;17.14;65.02;101357.44;5060179;28;45334;-87
2023/10/10 06:00:36;;;;;;;;;23.33;23.33;;;;;17.36;65.33;101395.28;5061124;28;45399;-86
2023/10/10 06:03:05;;;;;;;;;29.67;23.33;;;;;16.98;65.31;101342.41;5059846;28;45416;-86
2023/10/10 06:05:32;;;;;;;;;19.00;18.00;;;;;17.33;64.86;101390.13;5060464;28;45216;-85
2023/10/10 06:07:58;;;;;;;;;24.67;20.33;;;;;17.32;64.39;101388.41;5060532;28;45467;-85
2023/10/10 06:10:28;;;;;;;;;18.00;18.00;;;;;17.45;64.57;101408.06;5058567;28;45499;-84
2023/10/10 06:12:55;;;;;;;;;17.00;15.00;;;;;17.32;63.65;101383.03;5059782;28;45366;-85
2023/10/10 06:15:20;;;;;;;;;18.67;17.33;;;;;17.50;63.66;101403.19;5052174;28;45463;-85
2023/10/10 06:17:48;;;;;;;;;20.33;18.00;;;;;17.52;63.67;101406.63;5050557;28;45669;-82
2023/10/10 06:20:16;;;;;;;;;25.33;22.00;;;;;17.45;64.29;101389.25;5049461;28;45441;-81
2023/10/10 06:22:44;;;;;;;;;18.00;14.33;;;;;17.54;64.43;101410.06;5064417;28;45281;-82
2023/10/10 06:25:11;;;;;;;;;24.67;19.67;;;;;17.53;64.27;101408.34;5058829;28;45327;-83
2023/10/10 06:27:37;;;;;;;;;19.33;17.67;;;;;17.54;64.36;101409.22;5055719;28;45268;-83
2023/10/10 06:30:05;;;;;;;;;19.33;18.00;;;;;17.63;63.92;101405.88;5043770;28;45378;-81
2023/10/10 06:32:31;;;;;;;;;23.33;17.00;;;;;17.75;63.48;101404.16;5068500;28;45362;-81
2023/10/10 06:37:41;;;;;;;;;19.67;19.00;;;;;17.86;63.33;101401.53;5056466;28;45483;-81
2023/10/10 06:40:08;;;;;;;;;23.00;21.00;;;;;17.92;63.41;101401.06;5047055;28;45311;-82
2023/10/10 06:42:38;;;;;;;;;20.67;18.00;;;;;18.03;62.71;101411.91;5036058;28;45590;-80
2023/10/10 06:45:08;;;;;;;;;18.67;17.67;;;;;18.17;62.11;101405.47;5048130;28;46648;-78
2023/10/10 06:47:47;;;;;;;;;19.00;18.00;;;;;18.30;61.67;101408.09;5036209;28;45419;-78
2023/10/10 06:50:12;;;;;;;;;16.00;16.00;;;;;18.35;61.47;101403.22;5036127;28;45475;-79
2023/10/10 06:52:38;;;;;;;;;19.00;16.67;;;;;18.34;61.05;101380.81;5035334;28;54711;-81
2023/10/10 06:55:10;;;;;;;;;24.33;19.00;;;;;18.54;60.84;101403.56;5036073;28;46487;-79
2023/10/10 06:57:38;;;;;;;;;18.67;18.67;;;;;18.51;60.60;101384.94;5036027;28;45295;-78
2023/10/10 07:00:20;;;;;;;;;24.00;21.00;;;;;18.67;60.47;101395.41;5034827;28;45949;-78
2023/10/10 07:02:50;;;;;;;;;22.33;22.33;;;;;18.75;59.85;101385.78;5036174;28;45542;-80
2023/10/10 07:05:18;;;;;;;;;20.33;19.33;;;;;18.88;59.22;101392.88;5036285;28;45457;-79
2023/10/10 07:07:52;;;;;;;;;20.33;18.00;;;;;18.98;58.60;101399.28;5036776;28;45260;-78
2023/10/10 07:10:25;;;;;;;;;16.67;16.67;;;;;18.95;58.02;101388.75;5036969;28;45432;-78
2023/10/10 07:12:57;;;;;;;;;18.00;17.00;;;;;19.02;58.06;101407.00;5036234;28;45482;-78
2023/10/10 07:15:23;;;;;;;;;18.67;18.67;;;;;18.85;57.58;101383.19;5036289;28;46211;-80
2023/10/10 07:17:49;;;;;;;;;19.33;19.33;;;;;18.96;58.37;101412.88;5038593;28;45474;-83
2023/10/10 07:22:41;;;;;;;;;28.33;22.00;;;;;19.04;58.24;101413.16;5037904;28;45493;-79
2023/10/10 07:25:18;;;;;;;;;24.33;23.00;;;;;19.02;57.65;101400.78;5035799;28;46057;-79
2023/10/10 07:27:44;;;;;;;;;24.67;23.00;;;;;19.07;58.12;101412.03;5054281;28;45211;-79
2023/10/10 07:32:44;;;;;;;;;18.00;16.33;;;;;19.18;57.57;101416.59;5039922;28;45350;-80
2023/10/10 07:35:14;;;;;;;;;14.67;12.00;;;;;19.23;57.41;101415.22;5039607;28;45399;-80
2023/10/10 07:37:41;;;;;;;;;24.00;22.33;;;;;19.30;56.98;101411.06;5039555;28;45492;-79
2023/10/10 07:42:38;;;;;;;;;19.33;18.67;;;;;19.33;56.86;101404.56;5039673;28;45504;-80
2023/10/10 07:45:14;;;;;;;;;18.00;16.33;;;;;19.43;56.53;101416.34;5039491;28;46825;-80
2023/10/10 07:50:27;;;;;;;;;19.00;19.00;;;;;19.57;56.43;101417.97;5039478;28;45314;-80
2023/10/10 07:52:54;;;;;;;;;20.67;20.67;;;;;19.62;55.88;101415.75;5038131;28;45601;-79
2023/10/10 07:55:22;;;;;;;;;19.67;18.00;;;;;19.73;55.29;101423.84;5040309;28;45383;-81
2023/10/10 07:57:59;;;;;;;;;23.67;21.67;;;;;19.85;54.96;101425.53;5038726;28;45267;-79
2023/10/10 08:00:35;;;;;;;;;23.67;21.67;;;;;19.82;54.92;101408.75;5039527;28;45434;-79
2023/10/10 08:03:05;;;;;;;;;21.00;19.67;;;;;19.99;53.94;101419.84;5040346;28;45315;-80
2023/10/10 08:05:31;;;;;;;;;21.00;20.00;;;;;20.04;54.32;101420.31;5038454;28;47061;-79
2023/10/10 08:07:56;;;;;;;;;31.67;21.67;;;;;20.14;54.21;101439.31;5040342;28;45315;-79
2023/10/10 08:13:09;;;;;;;;;31.67;24.00;;;;;20.03;54.40;101415.91;5039683;28;45445;-80
2023/10/10 08:15:56;;;;;;;;;30.33;28.33;;;;;20.31;54.02;101444.22;5039163;28;47234;-81
2023/10/10 08:21:10;;;;;;;;;31.67;25.67;;;;;20.35;54.04;101435.84;5039095;28;45449;-79
2023/10/10 08:23:42;;;;;;;;;28.33;23.33;;;;;20.39;53.82;101431.88;5039447;28;45424;-78
2023/10/10 08:26:18;;;;;;;;;25.33;21.33;;;;;20.22;53.33;101403.59;5053839;28;47317;-80
2023/10/10 08:28:48;;;;;;;;;24.33;21.33;;;;;20.38;53.64;101427.47;5036811;28;45261;-81
2023/10/10 08:31:14;;;;;;;;;33.33;25.33;;;;;20.25;53.21;101417.69;5038364;28;45409;-80
2023/10/10 08:33:44;;;;;;;;;28.00;22.00;;;;;20.20;53.08;101419.06;5038955;28;45420;-79
2023/10/10 08:36:12;;;;;;;;;28.00;23.33;;;;;19.97;53.18;101386.72;5038181;28;46247;-80
2023/10/10 08:38:42;;;;;;;;;25.67;25.67;;;;;20.20;53.60;101422.63;5038391;28;45441;-80
2023/10/10 08:41:08;;;;;;;;;26.67;25.33;;;;;20.20;53.37;101413.66;5038675;28;45338;-83
2023/10/10 08:43:36;;;;;;;;;24.33;23.33;;;;;20.17;53.63;101406.66;5038334;28;45295;-82
2023/10/10 08:46:04;;;;;;;;;26.67;25.33;;;;;20.25;53.55;101419.53;5038599;28;46273;-81
2023/10/10 08:48:33;;;;;;;;;26.00;25.00;;;;;20.21;53.37;101409.97;5037512;28;45395;-83
2023/10/10 08:51:03;;;;;;;;;30.33;24.67;;;;;20.42;53.34;101415.44;5037813;28;45359;-82
2023/10/10 08:53:29;;;;;;;;;29.67;23.67;;;;;20.53;53.18;101418.94;5037876;28;45510;-79
2023/10/10 08:55:57;;;;;;;;;25.33;23.33;;;;;20.56;52.55;101413.28;5037998;28;46290;-81
2023/10/10 08:58:23;;;;;;;;;27.67;26.33;;;;;20.66;52.49;101423.31;5037975;28;45371;-78
2023/10/10 09:00:49;;;;;;;;;30.33;26.67;;;;;20.77;52.75;101431.38;5036374;28;45411;-80
2023/10/10 09:03:15;;;;;;;;;25.67;23.00;;;;;20.83;52.22;101430.81;5036435;28;45375;-79
2023/10/10 09:05:40;;;;;;;;;27.33;24.33;;;;;20.80;52.29;101425.69;5037303;28;45236;-78
2023/10/10 09:08:15;;;;;;;;;23.67;22.33;;;;;20.70;52.43;101412.09;5037596;28;45232;-80
2023/10/10 09:10:43;;;;;;;;;23.00;21.33;;;;;20.82;52.10;101415.59;5037629;28;45321;-80
2023/10/10 09:13:09;;;;;;;;;26.67;22.33;;;;;20.82;52.23;101418.31;5037624;28;45516;-79
2023/10/10 09:15:36;;;;;;;;;30.33;23.33;;;;;20.80;52.29;101421.13;5037063;28;45494;-79
2023/10/10 09:18:22;;;;;;;;;24.67;23.33;;;;;20.84;52.24;101416.34;5037378;28;45371;-81
2023/10/10 09:20:48;;;;;;;;;30.67;28.00;;;;;20.89;52.27;101419.50;5037835;28;45487;-80
2023/10/10 09:23:27;;;;;;;;;25.00;23.33;;;;;20.92;52.19;101408.41;5037965;28;45505;-79
2023/10/10 09:26:12;;;;;;;;;25.33;24.00;;;;;20.98;52.37;101415.16;5037346;28;47994;-79
2023/10/10 09:29:15;;;;;;;;;29.00;26.67;;;;;21.07;52.21;101404.38;5037527;28;45307;-78
2023/10/10 09:31:45;;;;;;;;;24.33;21.67;;;;;21.17;51.82;101399.88;5037165;28;45286;-79
2023/10/10 09:34:12;;;;;;;;;28.67;24.00;;;;;21.27;51.71;101397.25;5037168;28;45473;-81
2023/10/10 09:36:38;;;;;;;;;26.67;26.00;;;;;21.23;51.58;101373.28;5036828;28;45470;-80
2023/10/10 09:39:09;;;;;;;;;26.33;26.33;;;;;21.53;51.41;101394.09;5037481;28;45343;-79
2023/10/10 09:54:56;;;;;;;;;23.33;23.00;;;;;22.32;49.50;101413.94;5037144;28;45387;-80
2023/10/10 09:57:26;;;;;;;;;25.00;23.33;;;;;22.45;49.63;101419.06;5036660;28;45263;-80
2023/10/10 09:59:56;;;;;;;;;22.67;22.33;;;;;22.60;49.01;101412.22;5036881;28;45362;-80
2023/10/10 10:02:40;;;;;;;;;25.33;23.67;;;;;22.60;49.08;101398.66;5036849;28;45249;-80
2023/10/10 10:05:14;;;;;;;;;20.67;20.67;;;;;22.69;48.74;101397.81;5036851;28;45401;-78
2023/10/10 10:08:06;;;;;;;;;20.33;20.33;;;;;22.88;48.55;101403.22;5037957;28;45300;-81
2023/10/10 10:10:54;;;;;;;;;21.33;19.00;;;;;23.03;47.90;101400.88;5039508;28;45362;-80
2023/10/10 10:13:37;;;;;;;;;23.67;19.67;;;;;23.27;47.90;101400.38;5038526;28;45387;-78
2023/10/10 10:16:20;;;;;;;;;19.00;19.00;;;;;23.57;46.90;101384.81;5038365;28;45354;-78
2023/10/10 10:18:47;;;;;;;;;18.67;18.00;;;;;23.97;46.42;101393.47;5037390;28;46253;-79
2023/10/10 10:21:32;;;;;;;;;15.33;15.33;;;;;24.26;45.88;101406.00;5037431;28;45370;-80
2023/10/10 10:24:15;;;;;;;;;14.67;14.67;;;;;24.45;45.31;101400.41;5037114;28;45506;-78
2023/10/10 10:26:42;;;;;;;;;14.00;12.00;;;;;24.74;44.56;101392.00;5037253;28;45254;-80
2023/10/10 10:29:15;;;;;;;;;16.33;13.00;;;;;25.05;44.06;101392.41;5036653;28;45448;-80
2023/10/10 10:31:49;;;;;;;;;16.33;16.33;;;;;25.30;43.61;101379.81;5036926;28;45400;-80
2023/10/10 10:34:31;;;;;;;;;17.67;14.67;;;;;25.54;42.54;101379.06;5037385;28;45331;-82
2023/10/10 10:37:13;;;;;;;;;12.75;12.75;;;;;25.85;42.20;101377.47;5037064;28;45213;-80
2023/10/10 10:39:46;;;;;;;;;13.67;10.67;;;;;26.01;42.08;101376.66;5036804;28;45726;-81
2023/10/10 10:42:11;;;;;;;;;10.75;10.75;;;;;26.08;42.08;101385.88;5036604;28;45412;-80
2023/10/10 10:44:55;;;;;;;;;13.75;12.50;;;;;26.17;41.36;101375.81;5036752;28;45386;-81
2023/10/10 10:47:35;;;;;;;;;15.00;11.25;;;;;26.51;41.52;101385.78;5036835;28;45305;-80
2023/10/10 10:50:29;;;;;;;;;19.50;13.50;;;;;26.72;40.78;101373.31;5037776;28;46044;-83
2023/10/10 10:53:08;;;;;;;;;13.75;13.00;;;;;26.62;40.94;101344.50;5009821;28;45326;-80
2023/10/10 10:55:39;;;;;;;;;18.25;14.75;;;;;26.49;40.50;101308.72;5052243;28;45445;-81
2023/10/10 10:58:09;;;;;;;;;16.50;14.00;;;;;27.08;40.39;101372.94;5038071;28;45333;-80
2023/10/10 11:01:07;;;;;;;;;12.50;12.50;;;;;26.98;40.17;101317.66;5037159;28;45418;-81
2023/10/10 11:03:35;;;;;;;;;6.75;5.50;;;;;27.72;39.14;101373.72;5037464;28;45247;-81
2023/10/10 11:06:06;;;;;;;;;10.00;10.00;;;;;28.23;37.72;101367.78;5045215;28;45491;-80
2023/10/10 11:14:09;;;;;;;;;11.60;10.60;;;;;29.47;34.96;101342.66;5038006;28;45395;-82
2023/10/10 11:16:37;;;;;;;;;14.50;11.25;;;;;29.69;34.88;101351.75;5047572;28;45535;-83
2023/10/10 11:22:02;;;;;;;;;10.80;9.20;;;;;30.59;33.88;101341.06;5035924;28;45339;-83
2023/10/10 11:24:32;;;;;;;;;13.60;13.40;;;;;30.82;32.91;101347.19;5036333;28;45364;-82
2023/10/10 11:29:57;;;;;;;;;14.00;12.25;;;;;30.98;32.23;101340.53;5042518;28;45490;-82
2023/10/10 11:32:24;;;;;;;;;10.00;8.40;;;;;30.66;32.36;101325.53;5036135;28;45356;-81
2023/10/10 11:34:50;;;;;;;;;14.25;12.50;;;;;30.49;32.79;101324.13;5038479;28;45410;-83
2023/10/10 11:37:26;;;;;;;;;12.80;12.80;;;;;30.18;32.41;101321.72;5056047;28;45346;-82
2023/10/10 11:40:19;;;;;;;;;14.00;11.40;;;;;30.11;32.86;101332.66;5055866;28;45331;-82
2023/10/10 11:42:49;;;;;;;;;9.60;8.80;;;;;30.04;32.32;101314.38;5036241;28;46552;-81
2023/10/10 11:45:18;;;;;;;;;11.00;11.00;;;;;30.13;31.78;101316.84;5054690;28;45484;-80
2023/10/10 11:47:44;;;;;;;;;5.00;3.80;;;;;30.04;30.85;101301.50;5055314;28;45334;-82
2023/10/10 11:50:15;;;;;;;;;6.50;5.50;;;;;30.27;30.13;101309.56;5039258;28;45624;-82
2023/10/10 11:52:56;;;;;;;;;10.00;10.00;;;;;31.09;29.22;101298.75;5035910;28;45356;-85
2023/10/10 11:55:24;;;;;;;;;5.60;5.60;;;;;31.74;28.02;101301.19;5039744;28;45327;-83
2023/10/10 11:57:52;;;;;;;;;11.20;8.80;;;;;32.65;26.90;101305.09;5039792;28;45440;-84
2023/10/10 12:00:22;;;;;;;;;7.40;7.40;;;;;32.75;26.32;101288.97;5061359;28;45694;-84
2023/10/10 12:02:51;;;;;;;;;5.80;5.80;;;;;32.57;26.91;101297.06;5051564;28;45759;-83
2023/10/10 12:08:01;;;;;;;;;10.80;9.60;;;;;33.17;26.50;101266.63;5036793;28;45336;-82
2023/10/10 12:13:19;;;;;;;;;12.80;10.40;;;;;35.27;24.35;101267.91;5039164;28;45832;-86
2023/10/10 12:15:45;;;;;;;;;7.60;7.00;;;;;35.93;22.80;101278.09;5039647;28;45385;-82
2023/10/10 12:18:11;;;;;;;;;10.25;7.00;;;;;35.74;22.40;101267.06;5039682;28;46573;-84
2023/10/10 12:20:44;;;;;;;;;11.00;7.75;;;;;36.86;21.48;101275.44;5039475;28;45492;-82
2023/10/10 12:23:13;;;;;;;;;8.60;7.00;;;;;38.01;21.41;101256.91;5038138;28;46124;-84
2023/10/10 12:25:41;;;;;;;;;5.80;5.80;;;;;38.32;20.73;101263.84;5039196;28;45203;-81
2023/10/10 12:28:13;;;;;;;;;8.00;8.00;;;;;39.05;19.53;101265.47;5039197;28;45421;-83
2023/10/10 12:30:41;;;;;;;;;7.80;7.00;;;;;38.82;19.71;101257.41;5039530;28;45362;-82
2023/10/10 12:33:16;;;;;;;;;9.60;8.20;;;;;38.95;19.60;101259.78;5055349;28;46159;-83
2023/10/10 12:35:48;;;;;;;;;3.80;3.40;;;;;40.01;19.14;101245.44;5057297;28;45596;-83
2023/10/10 12:38:20;;;;;;;;;8.00;8.00;;;;;41.05;17.77;101258.69;5048346;28;45529;-82
2023/10/10 12:40:53;;;;;;;;;9.20;9.20;;;;;41.84;17.73;101246.34;5039641;28;45284;-83
2023/10/10 12:43:25;;;;;;;;;8.20;8.00;;;;;42.38;17.18;101238.22;5039063;28;46376;-84
2023/10/10 12:45:51;;;;;;;;;7.60;7.60;;;;;43.03;16.67;101243.09;5037157;28;45810;-79
2023/10/10 12:48:21;;;;;;;;;8.20;6.60;;;;;43.37;16.17;101234.84;5046440;28;45387;-83
2023/10/10 12:50:48;;;;;;;;;9.00;7.20;;;;;43.66;15.89;101241.34;5057092;28;45560;-83
2023/10/10 12:53:19;;;;;;;;;6.00;5.20;;;;;44.11;15.08;101239.34;5057455;28;46129;-81
2023/10/10 12:55:49;;;;;;;;;9.60;7.60;;;;;44.23;15.38;101236.13;5047716;28;45381;-82
2023/10/10 12:58:22;;;;;;;;;4.80;4.80;;;;;44.62;15.34;101222.84;5039927;28;45426;-82
2023/10/10 13:00:52;;;;;;;;;8.60;6.20;;;;;44.96;15.04;101231.16;5047381;28;46573;-81
2023/10/10 13:03:29;;;;;;;;;12.80;9.80;;;;;45.11;15.10;101218.03;5050450;28;47177;-89
2023/10/10 13:06:00;;;;;;;;;5.60;5.60;;;;;44.90;14.47;101226.72;5039534;28;45193;-82
2023/10/10 13:08:39;;;;;;;;;7.20;7.20;;;;;42.55;16.06;101218.34;5045586;28;45494;-84
2023/10/10 13:11:12;;;;;;;;;11.00;9.40;;;;;40.25;17.76;101218.88;5058331;28;45247;-83
2023/10/10 13:13:45;;;;;;;;;11.20;9.20;;;;;38.36;19.60;101217.78;5057221;28;45564;-82
2023/10/10 13:16:23;;;;;;;;;7.00;7.00;;;;;36.89;20.46;101202.03;5058904;28;45403;-83
2023/10/10 13:18:49;;;;;;;;;11.00;8.60;;;;;35.62;22.01;101201.69;5058820;28;45325;-82
2023/10/10 13:21:16;;;;;;;;;8.00;8.00;;;;;34.70;22.79;101203.75;5043839;28;45469;-83
2023/10/10 13:23:43;;;;;;;;;4.20;2.60;;;;;33.70;23.25;101199.09;5055859;28;45320;-82
2023/10/10 13:26:09;;;;;;;;;5.80;5.80;;;;;32.94;23.98;101196.31;5058247;28;45537;-84
2023/10/10 13:28:36;;;;;;;;;6.00;5.60;;;;;32.38;24.38;101205.16;5056945;28;45488;-82
2023/10/10 13:31:02;;;;;;;;;6.20;5.60;;;;;31.80;25.01;101206.88;5056864;28;45388;-82
2023/10/10 13:33:27;;;;;;;;;5.00;5.00;;;;;31.28;25.42;101200.19;5057778;28;46079;-82
2023/10/10 13:35:53;;;;;;;;;7.25;5.75;;;;;30.83;25.77;101199.75;5058718;28;47689;-86
2023/10/10 13:38:18;;;;;;;;;2.75;2.75;;;;;30.39;26.04;101175.41;5052716;28;45416;-81
2023/10/10 13:40:45;;;;;;;;;9.50;4.75;;;;;30.20;26.85;101187.94;5058508;28;45549;-89
2023/10/10 13:43:16;;;;;;;;;6.20;6.20;;;;;29.87;27.25;101191.25;5057681;28;46873;-83
2023/10/10 13:45:47;;;;;;;;;9.40;9.20;;;;;29.61;27.56;101182.78;5057773;28;45428;-84
2023/10/10 13:48:13;;;;;;;;;7.20;6.60;;;;;29.35;27.70;101178.69;5052192;28;45472;-83
2023/10/10 13:50:42;;;;;;;;;8.00;7.50;;;;;29.21;27.78;101187.81;5057239;28;45285;-83
2023/10/10 13:53:12;;;;;;;;;8.20;6.80;;;;;29.04;28.47;101191.84;5058733;28;46001;-82
2023/10/10 13:55:38;;;;;;;;;7.80;7.80;;;;;28.91;29.32;101197.13;5053756;28;45388;-83
2023/10/10 13:58:07;;;;;;;;;12.20;9.20;;;;;28.70;29.78;101185.03;5053985;28;45487;-83
2023/10/10 14:00:39;;;;;;;;;8.40;7.80;;;;;28.47;29.90;101156.94;5059281;28;45314;-84
2023/10/10 14:03:05;;;;;;;;;9.40;7.00;;;;;28.53;29.60;101178.09;5061768;28;45330;-81
2023/10/10 14:05:36;;;;;;;;;6.60;6.00;;;;;28.51;29.57;101182.88;5054838;28;45346;-80
2023/10/10 14:08:03;;;;;;;;;6.20;6.20;;;;;28.36;30.30;101177.41;5057436;28;45248;-81
2023/10/10 14:10:36;;;;;;;;;9.25;8.00;;;;;28.29;30.31;101183.81;5049244;28;45613;-81
2023/10/10 14:13:18;;;;;;;;;9.60;8.00;;;;;28.14;30.65;101165.47;5056055;28;46502;-82
2023/10/10 14:15:56;;;;;;;;;7.80;7.60;;;;;28.15;30.95;101175.38;5046690;28;45327;-82
2023/10/10 14:18:29;;;;;;;;;8.00;8.00;;;;;28.20;30.74;101189.34;5042633;28;45387;-82
2023/10/10 14:20:56;;;;;;;;;7.00;6.20;;;;;28.13;31.20;101182.09;5060001;28;45537;-80
2023/10/10 14:23:24;;;;;;;;;6.20;6.20;;;;;27.95;30.68;101157.81;5055578;28;47231;-83
2023/10/10 14:25:50;;;;;;;;;6.60;4.60;;;;;27.95;30.31;101174.19;5037964;28;45468;-86
2023/10/10 14:28:17;;;;;;;;;6.00;5.00;;;;;27.87;30.79;101177.03;5048006;28;45364;-81
2023/10/10 14:30:43;;;;;;;;;8.80;7.20;;;;;27.87;30.90;101185.22;5060846;28;45306;-81